Details From NGFU - Funafuti Atol Intl
To PTSA - Kosrae
Flight Number -
Tags generated
Created
Modified
Stats Distance 1,307 nm / 2,420 km
Max Altitude 34,000 ft / 10,363 m
Waypoints 7
Social Downloads 2
Likes 0
Share VATSIM

Download

Looking for another format? Having issues loading an existing format? Contact us
Advertisement - Login to hide

Notes

Basic altitude profile: - Ascent Rate: 2500ft/min - Ascent Speed: 250kts - Cruise Altitude: 35000ft - Cruise Speed: 420kts - Descent Rate: 1500ft/min - Descent Speed: 250kts Options: - Use NATs: yes - Use PACOTS: yes - Use low airways: yes - Use high airways: yes

Route

NGFU FU A584 NI G223 MUBIT PTSA

ID Type Via Altitude Latitude Longitude Leg Dist Tot Dist Heading (true) Name
O NGFU APT - 0 ft / 0 m -8.52402˚ 179.19680˚ - 0 nm - Funafuti Atol Intl
FU NDB - 0 ft / 0 m -8.52306˚ 179.20028˚ 0 nm 0 nm 74° / 74° FUNAFUTI NDB
AKUMO FIX A584 (AWY-LO) 34,000 ft / 10,363 m -6.24833˚ 175.59167˚ 254 nm 254 nm 302° / 303° -
UPDIX FIX A584 (AWY-HI) 34,000 ft / 10,363 m -2.54833˚ 170.00000˚ 401 nm 656 nm 303° / 304° -
NI VOR A584 (AWY-HI) 34,000 ft / 10,363 m -0.54333˚ 166.92167˚ 220 nm 877 nm 303° / 303° NAURU VOR-DME
MUBIT FIX G223 (AWY-HI) 32,400 ft / 9,876 m 3.50000˚ 164.66833˚ 277 nm 1155 nm 331° / 331° -
O PTSA APT - 0 ft / 0 m 5.35692˚ 162.95840˚ 151 nm 1306 nm 318° / 317° Kosrae

Altitude Profile

Advertisement - Login to hide

Weather


0- 5 10 15 20 25 30 35+ Temperature / ° C

Clouds and Precipitation
Forecast for 2017-12-18 06:00 UTC. Updated 36 minutes ago

Ground ~20,000 ft ~40,000 ft Winds

NGFU

Details ICAO NGFU (FUN)
Name Funafuti Atol Intl
Region Kiribati and Tuvalu
Timezone Unknown (UTC+0.0)
Stats Elevation 6 ft / 2 m (AMSL)
Location -8.524020° 179.196801°
Runways 1
Magnetic Variation 10.637° E

METAR

NGFU 180100Z 34017KT 9999 FEW020 BKN110 BKN310 29/25 Q1003

Decode

TAF

TAF NGFU 172307Z 1800/1824 35015KT 9999 -SHRA SCT017 BKN045 OVC100 TEMPO 1800/1824 2000 TSRA BKN015 SCT017CB

Decode

Departure Runways

ID Width Length Bearing (true) Bearing (mag) Surface Threshold Offset Overrun Length
03 98 ft / 30 m 5,055 ft / 1,541 m 42.90° 32.26° Asphalt 0 ft / 0 m 0 ft / 0 m
21 98 ft / 30 m 5,055 ft / 1,541 m 222.90° 212.26° Asphalt 0 ft / 0 m 0 ft / 0 m

PTSA

Details ICAO PTSA (KSA)
Name Kosrae
Region Federated States of Micronesia, Palau
Timezone Unknown (UTC+0.0)
Stats Elevation 11 ft / 3 m (AMSL)
Location 5.356922° 162.958403°
Runways 1
Magnetic Variation 7.146° E

METAR

PTSA 180050Z 04008KT 10SM SCT019 SCT130 BKN300 32/24 A2974

Decode

TAF

TAF PTSA 172333Z 1800/1824 05010KT P6SM VCSH BKN020 BKN130 TEMPO 1805/1809 4SM SHRA OVC020

Decode

Destination Runways

ID Width Length Bearing (true) Bearing (mag) Surface Threshold Offset Overrun Length
05 151 ft / 46 m 5,749 ft / 1,752 m 55.56° 48.41° Asphalt 0 ft / 0 m 207 ft / 63 m
23 151 ft / 46 m 5,749 ft / 1,752 m 235.56° 228.41° Asphalt 0 ft / 0 m 207 ft / 63 m